Time;durP1;ratioP1;P1;durP2;ratioP2;P2;SDS_P1;SDS_P2;PMS_P1;PMS_P2;Temp;Humidity;BMP_temperature;BMP_pressure;BME280_temperature;BME280_humidity;BME280_pressure;Samples;Min_cycle;Max_cycle;Signal;HPM_P1;HPM_P2
2023/01/27 00:02:07;;;;;;;25.53;12.00;;;;;;;2.41;100.00;101089.44;5056410;28;20785;-81
2023/01/27 00:04:33;;;;;;;18.30;11.17;;;;;;;2.40;100.00;101075.69;5057463;28;20201;-81
2023/01/27 00:06:59;;;;;;;19.43;12.57;;;;;;;2.43;100.00;101070.59;5056874;28;20232;-79
2023/01/27 00:09:26;;;;;;;19.50;11.83;;;;;;;2.41;100.00;101071.38;5055648;28;20205;-80
2023/01/27 00:14:36;;;;;;;16.33;11.60;;;;;;;2.38;100.00;101056.75;5056489;28;20208;-80
2023/01/27 00:17:03;;;;;;;14.33;9.93;;;;;;;2.46;100.00;101055.22;5056272;28;20774;-81
2023/01/27 00:19:30;;;;;;;19.07;10.30;;;;;;;2.30;100.00;101050.50;5056592;28;20263;-81
2023/01/27 00:24:41;;;;;;;17.80;10.60;;;;;;;2.41;100.00;101035.31;5051197;28;20264;-80
2023/01/27 00:27:09;;;;;;;18.53;10.87;;;;;;;2.45;100.00;101040.56;5048355;28;20198;-81
2023/01/27 00:29:35;;;;;;;21.43;11.13;;;;;;;2.39;100.00;101032.69;5056771;28;20241;-79
2023/01/27 00:34:48;;;;;;;18.53;10.67;;;;;;;2.54;100.00;101029.63;5056127;28;20703;-83
2023/01/27 00:37:15;;;;;;;15.33;11.47;;;;;;;2.57;100.00;101045.16;5057987;28;20719;-82
2023/01/27 00:39:41;;;;;;;19.80;12.03;;;;;;;2.57;100.00;101040.00;5057202;28;20253;-80
2023/01/27 00:42:08;;;;;;;20.97;11.70;;;;;;;2.56;100.00;101036.56;5056985;28;20279;-83
2023/01/27 00:44:34;;;;;;;20.83;11.23;;;;;;;2.60;100.00;101042.66;5057522;28;20199;-82
2023/01/27 00:47:00;;;;;;;15.60;11.50;;;;;;;2.65;100.00;101051.34;5057864;28;20645;-81
2023/01/27 00:49:28;;;;;;;21.37;11.20;;;;;;;2.64;100.00;101059.94;5057634;28;20201;-81
2023/01/27 00:51:54;;;;;;;17.93;11.27;;;;;;;2.64;100.00;101051.34;5056792;28;20221;-79
2023/01/27 00:54:21;;;;;;;20.13;11.53;;;;;;;2.63;100.00;101062.47;5052356;28;20210;-82
2023/01/27 00:56:48;;;;;;;26.40;12.50;;;;;;;2.60;100.00;101071.00;5048153;28;20246;-82
2023/01/27 00:59:14;;;;;;;24.97;12.33;;;;;;;2.66;100.00;101063.41;5057265;28;20210;-82
2023/01/27 01:01:40;;;;;;;25.73;11.67;;;;;;;2.70;100.00;101064.34;5056786;28;20579;-81
2023/01/27 01:04:07;;;;;;;20.00;12.73;;;;;;;2.64;100.00;101061.66;5057931;28;20205;-82
2023/01/27 01:06:34;;;;;;;25.73;13.30;;;;;;;2.69;100.00;101066.03;5057554;28;20259;-81
2023/01/27 01:09:01;;;;;;;27.20;12.07;;;;;;;2.72;100.00;101075.56;5057419;28;20231;-82
2023/01/27 01:11:27;;;;;;;28.43;13.13;;;;;;;2.73;100.00;101077.31;5056801;28;20206;-82
2023/01/27 01:13:54;;;;;;;18.93;12.50;;;;;;;2.72;100.00;101086.75;5057404;28;20222;-81
2023/01/27 01:16:22;;;;;;;31.23;13.70;;;;;;;2.75;100.00;101091.97;5056797;28;20254;-80
2023/01/27 01:18:48;;;;;;;23.70;12.43;;;;;;;2.77;100.00;101092.00;5057603;28;20209;-82
2023/01/27 01:21:15;;;;;;;28.73;13.47;;;;;;;2.74;100.00;101097.09;5056326;28;20201;-82
2023/01/27 01:23:44;;;;;;;31.43;14.27;;;;;;;2.72;100.00;101097.06;5056769;28;20252;-82
2023/01/27 01:26:12;;;;;;;30.50;13.60;;;;;;;2.71;100.00;101103.03;5044962;28;20288;-82
2023/01/27 01:28:39;;;;;;;24.73;13.60;;;;;;;2.77;100.00;101105.78;5055273;28;20194;-81
2023/01/27 01:31:07;;;;;;;20.43;13.23;;;;;;;2.82;100.00;101102.44;5055943;28;20202;-81
2023/01/27 01:33:33;;;;;;;26.30;12.97;;;;;;;2.83;100.00;101104.16;5056787;28;20715;-82
2023/01/27 01:36:04;;;;;;;26.73;13.43;;;;;;;2.82;100.00;101105.03;5056126;28;20259;-79
2023/01/27 01:38:30;;;;;;;28.77;12.03;;;;;;;2.77;100.00;101110.06;5057414;28;20229;-82
2023/01/27 01:40:58;;;;;;;28.43;13.53;;;;;;;2.75;100.00;101104.84;5055068;28;20267;-82
2023/01/27 01:43:26;;;;;;;26.50;12.73;;;;;;;2.77;100.00;101115.22;5055814;28;20283;-82
2023/01/27 01:45:54;;;;;;;25.27;12.93;;;;;;;2.74;100.00;101110.84;5055778;28;20217;-83
2023/01/27 01:48:30;;;;;;;26.27;13.37;;;;;;;2.81;100.00;101109.28;5055640;28;20555;-81
2023/01/27 01:51:00;;;;;;;23.13;11.67;;;;;;;2.82;100.00;101112.75;5055184;28;20248;-82
2023/01/27 01:53:31;;;;;;;22.30;12.10;;;;;;;2.81;100.00;101111.00;5056182;28;20225;-82
2023/01/27 01:56:06;;;;;;;22.67;11.83;;;;;;;2.75;100.00;101110.00;5045309;28;20238;-83
2023/01/27 01:58:34;;;;;;;15.13;11.43;;;;;;;2.72;100.00;101120.25;5052874;28;20236;-82
2023/01/27 02:01:01;;;;;;;19.47;10.83;;;;;;;2.75;100.00;101114.31;5055297;28;20229;-82
2023/01/27 02:03:29;;;;;;;19.83;12.63;;;;;;;2.74;100.00;101113.44;5055927;28;20318;-82
2023/01/27 02:05:56;;;;;;;16.60;10.87;;;;;;;2.69;100.00;101109.88;5056191;28;20237;-83
2023/01/27 02:08:27;;;;;;;18.17;11.67;;;;;;;2.71;100.00;101102.16;5056098;28;20229;-82
2023/01/27 02:10:54;;;;;;;19.50;11.10;;;;;;;2.76;100.00;101096.28;5053948;28;20208;-81
2023/01/27 02:13:22;;;;;;;20.70;10.73;;;;;;;2.77;100.00;101103.22;5054154;28;20279;-82
2023/01/27 02:15:52;;;;;;;17.77;10.67;;;;;;;2.82;100.00;101108.47;5055556;28;20548;-82
2023/01/27 02:18:18;;;;;;;15.53;11.40;;;;;;;2.75;100.00;101107.44;5055102;28;20254;-81
2023/01/27 02:20:47;;;;;;;14.77;11.43;;;;;;;2.74;100.00;101108.28;5053938;28;20205;-80
2023/01/27 02:23:27;;;;;;;21.67;11.70;;;;;;;2.79;100.00;101108.38;5054491;28;20628;-81
2023/01/27 02:25:58;;;;;;;19.00;11.63;;;;;;;2.77;100.00;101099.75;5045268;28;20198;-81
2023/01/27 02:28:27;;;;;;;17.87;10.50;;;;;;;2.81;100.00;101103.25;5051180;28;20726;-81
2023/01/27 02:30:53;;;;;;;17.97;10.30;;;;;;;2.80;100.00;101101.53;5054324;28;20629;-81
2023/01/27 02:33:20;;;;;;;16.63;11.03;;;;;;;2.80;100.00;101097.25;5057762;28;20595;-80
2023/01/27 02:35:56;;;;;;;18.00;9.93;;;;;;;2.80;100.00;101102.41;5058078;28;20604;-81
2023/01/27 02:38:25;;;;;;;13.43;9.90;;;;;;;2.80;100.00;101101.53;5058441;28;20222;-82
2023/01/27 02:40:57;;;;;;;19.13;11.40;;;;;;;2.78;100.00;101097.19;5057652;28;20234;-80
2023/01/27 02:43:23;;;;;;;15.77;9.63;;;;;;;2.82;100.00;101094.72;5058196;28;20256;-82
2023/01/27 02:45:50;;;;;;;18.17;10.07;;;;;;;2.81;100.00;101090.38;5058579;28;20308;-81
2023/01/27 02:48:16;;;;;;;14.93;10.30;;;;;;;2.84;100.00;101099.06;5059250;28;20577;-82
2023/01/27 02:50:42;;;;;;;15.73;9.50;;;;;;;2.87;100.00;101098.25;5057416;28;20232;-82
2023/01/27 02:53:09;;;;;;;13.00;9.77;;;;;;;2.86;100.00;101105.13;5058125;28;20226;-82
2023/01/27 02:55:35;;;;;;;12.77;9.83;;;;;;;2.90;100.00;101098.34;5050628;28;20680;-82
2023/01/27 02:58:03;;;;;;;12.93;9.50;;;;;;;2.92;100.00;101105.25;5051138;28;20283;-81
2023/01/27 03:00:29;;;;;;;13.97;10.43;;;;;;;2.94;100.00;101113.03;5057311;28;20728;-80
2023/01/27 03:02:56;;;;;;;16.87;11.20;;;;;;;2.93;100.00;101103.53;5058103;28;20335;-81
2023/01/27 03:05:23;;;;;;;12.33;10.97;;;;;;;2.94;100.00;101105.31;5057772;28;20233;-80
2023/01/27 03:07:49;;;;;;;15.93;10.40;;;;;;;2.94;100.00;101107.88;5057655;28;20571;-81
2023/01/27 03:10:15;;;;;;;15.87;10.50;;;;;;;2.98;100.00;101109.69;5056916;28;20256;-81
2023/01/27 03:12:43;;;;;;;13.03;11.30;;;;;;;3.00;100.00;101108.00;5057930;28;20230;-81
2023/01/27 03:18:10;;;;;;;14.63;10.60;;;;;;;3.02;100.00;101114.06;5057684;28;20225;-81
2023/01/27 03:20:36;;;;;;;13.90;10.63;;;;;;;3.03;100.00;101117.53;5057518;28;20220;-81
2023/01/27 03:23:03;;;;;;;15.37;10.10;;;;;;;3.04;100.00;101117.56;5057646;28;20716;-81
2023/01/27 03:25:29;;;;;;;12.50;10.23;;;;;;;3.07;100.00;101119.34;5051382;28;20201;-80
2023/01/27 03:27:56;;;;;;;13.93;10.17;;;;;;;3.06;100.00;101120.19;5050070;28;20201;-81
2023/01/27 03:30:24;;;;;;;11.67;9.83;;;;;;;3.08;100.00;101121.09;5056739;28;20202;-80
2023/01/27 03:32:50;;;;;;;13.00;10.70;;;;;;;3.10;100.00;101122.84;5057725;28;20279;-81
2023/01/27 03:35:17;;;;;;;11.40;10.20;;;;;;;3.13;100.00;101129.78;5057092;28;20207;-81
2023/01/27 03:48:42;;;;;;;12.60;10.30;;;;;;;3.12;100.00;101128.91;5057971;28;20308;-81
2023/01/27 03:51:10;;;;;;;12.67;8.90;;;;;;;3.12;100.00;101125.47;5056698;28;20205;-81
2023/01/27 03:53:37;;;;;;;12.03;9.80;;;;;;;3.13;100.00;101122.03;5057599;28;20230;-80
2023/01/27 03:56:04;;;;;;;16.30;10.70;;;;;;;3.12;100.00;101120.31;5045919;28;20627;-81
2023/01/27 03:58:33;;;;;;;12.97;9.67;;;;;;;3.15;100.00;101125.53;5053530;28;20595;-80
2023/01/27 04:01:04;;;;;;;10.73;9.40;;;;;;;3.15;100.00;101122.94;5056382;28;20361;-82
2023/01/27 04:09:03;;;;;;;12.87;9.20;;;;;;;3.18;100.00;101123.91;5056797;28;20281;-81
2023/01/27 04:14:14;;;;;;;12.67;9.30;;;;;;;3.21;100.00;101119.63;5056849;28;20209;-81
2023/01/27 04:16:42;;;;;;;10.03;8.97;;;;;;;3.21;100.00;101120.53;5057154;28;20201;-79
2023/01/27 04:19:10;;;;;;;9.43;8.37;;;;;;;3.22;100.00;101114.53;5057101;28;20229;-82
2023/01/27 04:21:37;;;;;;;14.37;9.13;;;;;;;3.19;100.00;101122.19;5056115;28;20198;-80
2023/01/27 04:24:07;;;;;;;9.83;8.83;;;;;;;3.21;100.00;101120.53;5054042;28;20205;-82
2023/01/27 04:26:33;;;;;;;13.03;10.30;;;;;;;3.22;100.00;101119.69;5045207;28;20252;-80
2023/01/27 04:29:00;;;;;;;12.17;9.20;;;;;;;3.21;100.00;101119.63;5056773;28;20264;-80
2023/01/27 04:31:27;;;;;;;10.20;9.10;;;;;;;3.21;100.00;101111.91;5055844;28;20202;-80
2023/01/27 04:33:54;;;;;;;10.53;9.17;;;;;;;3.24;100.00;101125.75;5056651;28;20650;-80
2023/01/27 04:36:21;;;;;;;13.00;9.53;;;;;;;3.23;100.00;101115.38;5055625;28;20202;-81
2023/01/27 04:38:47;;;;;;;12.37;9.80;;;;;;;3.25;100.00;101127.50;5056661;28;20230;-82
2023/01/27 04:41:13;;;;;;;10.13;8.33;;;;;;;3.25;100.00;101134.34;5055884;28;20213;-81
2023/01/27 04:43:40;;;;;;;10.23;8.70;;;;;;;3.27;100.00;101141.31;5057013;28;20225;-81
2023/01/27 04:46:06;;;;;;;12.43;9.07;;;;;;;3.28;100.00;101144.75;5056326;28;20570;-82
2023/01/27 04:48:33;;;;;;;10.07;9.07;;;;;;;3.26;100.00;101147.28;5056282;28;20210;-82
2023/01/27 04:51:01;;;;;;;9.87;8.77;;;;;;;3.26;100.00;101151.59;5055767;28;20222;-82
2023/01/27 04:53:27;;;;;;;10.30;8.33;;;;;;;3.27;100.00;101159.38;5055899;28;20229;-82
2023/01/27 04:56:01;;;;;;;10.97;8.27;;;;;;;3.27;100.00;101161.94;5046056;28;20202;-82
2023/01/27 04:58:28;;;;;;;9.90;8.83;;;;;;;3.30;100.00;101159.41;5052894;28;20266;-81
2023/01/27 05:00:54;;;;;;;12.10;8.60;;;;;;;3.30;100.00;101163.72;5055472;28;20202;-82
2023/01/27 05:03:20;;;;;;;10.27;8.80;;;;;;;3.30;100.00;101162.00;5055665;28;20251;-82
2023/01/27 05:05:47;;;;;;;9.67;8.57;;;;;;;3.31;100.00;101170.59;5056010;28;20254;-81
2023/01/27 05:08:15;;;;;;;9.70;8.43;;;;;;;3.30;100.00;101167.16;5056082;28;20578;-81
2023/01/27 05:10:43;;;;;;;9.23;7.53;;;;;;;3.30;100.00;101172.31;5055177;28;20205;-80
2023/01/27 05:13:09;;;;;;;10.03;8.17;;;;;;;3.31;100.00;101166.34;5055798;28;20229;-81
2023/01/27 05:15:35;;;;;;;9.63;8.63;;;;;;;3.34;100.00;101170.69;5055918;28;20211;-81
2023/01/27 05:18:02;;;;;;;10.47;9.00;;;;;;;3.35;100.00;101177.56;5055660;28;20225;-81
2023/01/27 05:20:30;;;;;;;9.10;8.07;;;;;;;3.34;100.00;101170.69;5055552;28;20747;-82
2023/01/27 05:23:33;;;;;;;12.03;8.50;;;;;;;3.36;100.00;101177.59;5055884;28;20232;-82
2023/01/27 05:25:44;;;;;;;9.77;8.73;;;;;;;3.36;100.00;101176.75;5047241;28;20288;-81
2023/01/27 05:28:11;;;;;;;9.43;7.67;;;;;;;3.33;100.00;101182.72;5049828;28;20197;-81
2023/01/27 05:30:37;;;;;;;10.20;8.47;;;;;;;3.35;100.00;101181.03;5055467;28;20672;-81
2023/01/27 05:33:04;;;;;;;8.07;7.27;;;;;;;3.38;100.00;101185.41;5055587;28;20278;-82
2023/01/27 05:35:32;;;;;;;8.87;7.97;;;;;;;3.38;100.00;101182.81;5054423;28;20255;-81
2023/01/27 05:37:59;;;;;;;10.43;8.47;;;;;;;3.40;100.00;101185.44;5055368;28;20708;-82
2023/01/27 05:40:25;;;;;;;9.30;8.37;;;;;;;3.37;100.00;101196.56;5054592;28;20255;-82
2023/01/27 05:42:53;;;;;;;7.90;6.87;;;;;;;3.35;100.00;101188.78;5055766;28;20249;-81
2023/01/27 05:45:20;;;;;;;8.10;7.20;;;;;;;3.41;100.00;101194.91;5055431;28;20205;-82
2023/01/27 05:47:48;;;;;;;6.83;6.23;;;;;;;3.41;100.00;101189.75;5055624;28;20213;-82
2023/01/27 05:50:15;;;;;;;7.67;6.97;;;;;;;3.42;100.00;101188.91;5054938;28;20201;-81
2023/01/27 05:52:42;;;;;;;6.87;5.83;;;;;;;3.44;100.00;101189.81;5055473;28;20651;-81
2023/01/27 05:55:08;;;;;;;7.03;6.27;;;;;;;3.45;100.00;101192.44;5049404;28;20261;-81
2023/01/27 05:57:34;;;;;;;6.30;5.70;;;;;;;3.47;100.00;101195.94;5047527;28;20259;-82
2023/01/27 06:00:02;;;;;;;6.17;5.57;;;;;;;3.50;100.00;101195.97;5054909;28;20629;-82
2023/01/27 06:02:28;;;;;;;8.40;5.47;;;;;;;3.51;100.00;101207.22;5055399;28;20230;-82
2023/01/27 06:04:55;;;;;;;5.40;4.97;;;;;;;3.50;100.00;101201.16;5047812;28;20197;-82
2023/01/27 06:07:21;;;;;;;5.70;5.20;;;;;;;3.52;100.00;101203.78;5042984;28;20677;-83
2023/01/27 06:09:47;;;;;;;4.57;4.17;;;;;;;3.53;100.00;101208.09;5035479;28;20253;-83
2023/01/27 06:12:14;;;;;;;5.50;4.90;;;;;;;3.52;100.00;101209.78;5035390;28;20226;-85
2023/01/27 06:14:40;;;;;;;4.90;4.40;;;;;;;3.53;100.00;101208.97;5035758;28;20211;-83
2023/01/27 06:17:08;;;;;;;5.20;4.70;;;;;;;3.56;100.00;101214.19;5035646;28;20674;-83
2023/01/27 06:19:34;;;;;;;5.00;4.40;;;;;;;3.54;100.00;101210.69;5035716;28;20231;-83
2023/01/27 06:22:01;;;;;;;5.40;4.90;;;;;;;3.56;100.00;101214.19;5034730;28;20226;-79
2023/01/27 06:24:28;;;;;;;5.07;4.57;;;;;;;3.55;100.00;101212.47;5035607;28;20210;-81
2023/01/27 06:26:55;;;;;;;4.20;3.90;;;;;;;3.56;100.00;101219.34;5043749;28;20194;-82
2023/01/27 06:29:21;;;;;;;3.83;3.53;;;;;;;3.58;100.00;101214.22;5035827;28;20210;-82
2023/01/27 06:31:48;;;;;;;4.20;3.80;;;;;;;3.58;100.00;101220.25;5034681;28;20570;-81
2023/01/27 06:34:15;;;;;;;5.83;4.10;;;;;;;3.57;100.00;101213.38;5034561;28;20206;-81
2023/01/27 06:36:42;;;;;;;4.17;3.77;;;;;;;3.59;100.00;101218.56;5035617;28;20206;-82
2023/01/27 06:39:08;;;;;;;4.90;4.33;;;;;;;3.58;100.00;101216.81;5035317;28;20253;-81
2023/01/27 06:41:34;;;;;;;4.80;4.30;;;;;;;3.61;100.00;101218.56;5034902;28;20212;-81
2023/01/27 06:44:01;;;;;;;4.80;3.83;;;;;;;3.57;100.00;101213.38;5035713;28;20659;-80
2023/01/27 06:46:27;;;;;;;4.27;3.60;;;;;;;3.58;100.00;101217.66;5035317;28;20261;-81
2023/01/27 06:48:53;;;;;;;4.43;3.70;;;;;;;3.59;100.00;101213.41;5035425;28;20202;-79
2023/01/27 06:51:21;;;;;;;4.57;3.73;;;;;;;3.61;100.00;101208.25;5034509;28;20202;-82
2023/01/27 06:53:47;;;;;;;3.97;3.60;;;;;;;3.63;100.00;101209.16;5035137;28;20230;-80
2023/01/27 06:56:14;;;;;;;3.60;3.30;;;;;;;3.65;100.00;101218.69;5042080;28;20206;-81
2023/01/27 06:58:41;;;;;;;3.80;3.33;;;;;;;3.64;100.00;101224.69;5052928;28;20268;-81
2023/01/27 07:01:07;;;;;;;4.27;3.87;;;;;;;3.66;100.00;101227.31;5054327;28;20213;-82
2023/01/27 07:03:34;;;;;;;3.77;3.47;;;;;;;3.67;100.00;101223.91;5054831;28;20241;-82
2023/01/27 07:06:00;;;;;;;3.60;3.30;;;;;;;3.67;100.00;101232.50;5055808;28;20232;-83
2023/01/27 07:08:28;;;;;;;3.47;3.17;;;;;;;3.68;100.00;101233.38;5055743;28;20206;-80
2023/01/27 07:10:54;;;;;;;2.70;2.50;;;;;;;3.68;100.00;101244.56;5054376;28;20236;-82
2023/01/27 07:13:20;;;;;;;3.43;2.93;;;;;;;3.67;100.00;101245.41;5055616;28;20230;-83
2023/01/27 07:15:47;;;;;;;2.40;2.20;;;;;;;3.65;100.00;101244.50;5056252;28;20267;-82
2023/01/27 07:18:14;;;;;;;3.23;3.00;;;;;;;3.62;100.00;101243.56;5056521;28;20213;-81
2023/01/27 07:20:40;;;;;;;3.17;2.90;;;;;;;3.58;100.00;101240.03;5058837;28;20579;-80
2023/01/27 07:23:07;;;;;;;3.10;2.80;;;;;;;3.61;100.00;101236.66;5058740;28;20225;-80
2023/01/27 07:25:35;;;;;;;2.67;2.47;;;;;;;3.62;100.00;101235.81;5051635;28;20209;-81
2023/01/27 07:28:02;;;;;;;2.90;2.60;;;;;;;3.67;100.00;101236.81;5050951;28;20209;-82
2023/01/27 07:30:29;;;;;;;2.40;2.20;;;;;;;3.69;100.00;101246.31;5057271;28;20501;-81
2023/01/27 07:32:55;;;;;;;2.50;2.30;;;;;;;3.66;100.00;101242.78;5057912;28;20282;-81
2023/01/27 07:35:22;;;;;;;3.10;2.77;;;;;;;3.68;100.00;101246.28;5018666;28;20211;-81
2023/01/27 07:37:48;;;;;;;2.67;2.03;;;;;;;3.70;100.00;101255.78;5018763;28;20207;-80
2023/01/27 07:40:15;;;;;;;1.60;1.50;;;;;;;3.74;100.00;101257.59;5018272;28;20230;-80
2023/01/27 07:42:43;;;;;;;1.60;1.50;;;;;;;3.73;100.00;101265.34;5018126;28;20299;-80
2023/01/27 07:45:09;;;;;;;2.88;2.67;;;;;;;3.76;100.00;101275.72;5017480;28;20849;-81
2023/01/27 07:47:36;;;;;;;2.43;1.87;;;;;;;3.85;100.00;101273.34;5019427;28;20752;-82
2023/01/27 07:50:02;;;;;;;1.97;1.87;;;;;;;3.85;100.00;101288.84;5018789;28;20257;-81
2023/01/27 07:52:28;;;;;;;1.63;1.53;;;;;;;3.87;100.00;101288.88;5018467;28;20787;-82
2023/01/27 07:54:55;;;;;;;1.40;1.30;;;;;;;3.86;100.00;101300.91;5037967;28;20217;-82
2023/01/27 07:57:21;;;;;;;1.80;1.70;;;;;;;3.83;100.00;101297.41;5051636;28;20206;-81
2023/01/27 07:59:52;;;;;;;2.83;1.60;;;;;;;3.81;100.00;101302.53;5037914;28;20647;-80
2023/01/27 08:02:18;;;;;;;1.60;1.20;;;;;;;3.79;100.00;101317.13;5037950;28;20720;-80
2023/01/27 08:04:48;;;;;;;1.40;1.30;;;;;;;3.74;100.00;101323.88;5036796;28;20253;-82
2023/01/27 08:07:14;;;;;;;1.70;1.40;;;;;;;3.64;100.00;101314.19;5034186;28;20206;-81
2023/01/27 08:09:40;;;;;;;1.60;1.30;;;;;;;3.62;100.00;101323.59;5036780;28;20697;-80
2023/01/27 08:12:07;;;;;;;2.80;1.00;;;;;;;3.58;100.00;101317.47;5037195;28;20226;-81
2023/01/27 08:14:33;;;;;;;1.40;1.30;;;;;;;3.55;100.00;101320.88;5037380;28;20207;-81
2023/01/27 08:17:01;;;;;;;3.57;2.23;;;;;;;3.55;100.00;101320.00;5036945;28;20207;-81
2023/01/27 08:19:27;;;;;;;1.40;1.30;;;;;;;3.53;100.00;101307.06;5037014;28;20278;-82
2023/01/27 08:21:53;;;;;;;1.37;1.20;;;;;;;3.50;100.00;101308.69;5036202;28;20202;-80
2023/01/27 08:24:20;;;;;;;1.40;1.30;;;;;;;3.53;100.00;101311.34;5042129;28;20259;-79
2023/01/27 08:26:46;;;;;;;1.60;1.50;;;;;;;3.52;100.00;101312.19;5053822;28;20625;-81
2023/01/27 08:29:12;;;;;;;1.60;1.50;;;;;;;3.48;100.00;101306.06;5036351;28;20619;-80
2023/01/27 08:31:40;;;;;;;2.07;1.50;;;;;;;3.46;100.00;101305.16;5035880;28;20762;-80
2023/01/27 08:34:08;;;;;;;2.37;1.80;;;;;;;3.50;100.00;101298.38;5035866;28;20214;-80
2023/01/27 08:36:34;;;;;;;3.83;2.17;;;;;;;3.52;100.00;101304.44;5037478;28;20625;-81
2023/01/27 08:39:00;;;;;;;2.13;1.93;;;;;;;3.54;100.00;101300.19;5037017;28;20230;-83
2023/01/27 08:41:27;;;;;;;2.10;2.00;;;;;;;3.52;100.00;101305.28;5036654;28;20234;-78
2023/01/27 08:43:54;;;;;;;2.33;2.07;;;;;;;3.56;100.00;101307.09;5036561;28;20286;-80
2023/01/27 08:46:21;;;;;;;2.00;1.90;;;;;;;3.58;100.00;101323.50;5044938;28;20190;-81
2023/01/27 08:48:49;;;;;;;1.90;1.60;;;;;;;3.57;100.00;101318.34;5045921;28;20658;-80
2023/01/27 08:51:17;;;;;;;1.60;1.50;;;;;;;3.58;100.00;101331.25;5036069;28;20251;-80
2023/01/27 08:53:43;;;;;;;2.37;1.40;;;;;;;3.57;100.00;101337.28;5036706;28;20286;-80
2023/01/27 08:56:13;;;;;;;1.40;1.30;;;;;;;3.60;100.00;101338.19;5044681;28;20206;-79
2023/01/27 08:58:40;;;;;;;1.70;1.30;;;;;;;3.63;100.00;101353.72;5053437;28;20202;-79
2023/01/27 09:01:07;;;;;;;1.13;1.03;;;;;;;3.62;100.00;101357.16;5054737;28;20614;-80
2023/01/27 09:03:35;;;;;;;1.37;1.10;;;;;;;3.59;100.00;101376.03;5051705;28;20234;-81
2023/01/27 09:06:01;;;;;;;0.90;0.90;;;;;;;3.58;100.00;101382.00;5037096;28;20206;-81
2023/01/27 09:08:29;;;;;;;1.30;0.87;;;;;;;3.56;100.00;101394.00;5035930;28;20202;-81
2023/01/27 09:10:56;;;;;;;1.37;0.87;;;;;;;3.52;100.00;101394.78;5043914;28;20204;-80
2023/01/27 09:13:23;;;;;;;1.10;0.90;;;;;;;3.52;100.00;101405.09;5042765;28;20218;-80
2023/01/27 09:15:51;;;;;;;0.73;0.73;;;;;;;3.49;100.00;101405.00;5052029;28;20259;-81
2023/01/27 09:18:18;;;;;;;2.67;1.10;;;;;;;3.52;100.00;101397.34;5047894;28;20607;-79
2023/01/27 09:20:44;;;;;;;1.63;0.87;;;;;;;3.58;100.00;101398.38;5045218;28;20219;-82
2023/01/27 09:23:11;;;;;;;0.77;0.77;;;;;;;3.60;100.00;101413.91;5043513;28;20214;-81
2023/01/27 09:25:39;;;;;;;1.73;1.03;;;;;;;3.61;100.00;101413.09;5046201;28;20202;-81
2023/01/27 09:28:05;;;;;;;1.27;1.10;;;;;;;3.56;100.00;101432.75;5048186;28;20205;-82
2023/01/27 09:30:31;;;;;;;1.50;1.40;;;;;;;3.54;100.00;101434.41;5045857;28;20193;-82
2023/01/27 09:32:59;;;;;;;1.47;1.17;;;;;;;3.53;100.00;101436.13;5045096;28;20643;-83
2023/01/27 09:35:30;;;;;;;1.77;1.30;;;;;;;3.54;100.00;101439.56;5044989;28;20195;-81
2023/01/27 09:37:58;;;;;;;1.70;1.30;;;;;;;3.50;100.00;101451.50;5037348;28;20202;-81
2023/01/27 09:40:31;;;;;;;1.60;1.27;;;;;;;3.52;100.00;101449.84;5045346;28;20295;-83
2023/01/27 09:43:15;;;;;;;0.70;0.70;;;;;;;3.46;100.00;101444.53;5045339;28;20660;-81
2023/01/27 09:46:00;;;;;;;2.03;1.20;;;;;;;3.48;100.00;101445.44;5044456;28;20252;-81
2023/01/27 09:48:57;;;;;;;1.53;1.43;;;;;;;3.50;100.00;101440.31;5045234;28;20237;-82
2023/01/27 09:51:36;;;;;;;1.40;1.10;;;;;;;3.49;100.00;101443.72;5043090;28;20802;-83
2023/01/27 09:54:16;;;;;;;1.53;1.20;;;;;;;3.48;100.00;101439.41;5047077;28;20574;-83
2023/01/27 09:56:53;;;;;;;1.23;1.10;;;;;;;3.52;100.00;101431.78;5046717;28;20666;-81
2023/01/27 09:59:40;;;;;;;1.67;1.10;;;;;;;3.52;100.00;101428.34;5042961;28;20227;-80
2023/01/27 10:02:19;;;;;;;1.70;1.30;;;;;;;3.58;100.00;101421.59;5044276;28;20288;-79
2023/01/27 10:05:01;;;;;;;2.03;1.83;;;;;;;3.61;100.00;101423.41;5044215;28;20227;-81
2023/01/27 10:07:58;;;;;;;1.10;1.00;;;;;;;3.62;100.00;101438.06;5045796;28;20256;-82
2023/01/27 10:10:32;;;;;;;1.93;1.27;;;;;;;3.63;100.00;101433.75;5043816;28;20197;-79
2023/01/27 10:13:13;;;;;;;1.50;1.40;;;;;;;3.63;100.00;101433.75;5041737;28;20295;-81
2023/01/27 10:15:57;;;;;;;1.43;1.23;;;;;;;3.60;100.00;101444.03;5043198;28;20202;-80
2023/01/27 10:18:40;;;;;;;1.40;1.30;;;;;;;3.65;100.00;101445.00;5043970;28;20550;-82
2023/01/27 10:21:16;;;;;;;2.30;1.83;;;;;;;3.67;100.00;101439.06;5039205;28;20226;-82
2023/01/27 10:23:55;;;;;;;2.83;2.27;;;;;;;3.74;100.00;101443.53;5044061;28;20279;-79
2023/01/27 10:26:29;;;;;;;2.33;1.80;;;;;;;3.80;100.00;101439.34;5049495;28;20199;-79
2023/01/27 10:29:08;;;;;;;1.97;1.60;;;;;;;3.85;100.00;101451.56;5046384;28;20196;-80
2023/01/27 10:31:39;;;;;;;3.00;1.70;;;;;;;3.85;100.00;101453.28;5041689;28;20198;-79
2023/01/27 10:34:17;;;;;;;2.20;1.80;;;;;;;3.86;100.00;101453.28;5046210;28;20229;-79
2023/01/27 10:36:50;;;;;;;2.10;1.90;;;;;;;3.86;100.00;101455.88;5041082;28;20240;-79
2023/01/27 10:39:23;;;;;;;3.27;2.53;;;;;;;3.88;100.00;101463.66;5043347;28;20661;-80
2023/01/27 10:41:57;;;;;;;2.27;2.07;;;;;;;3.86;100.00;101461.03;5044476;28;20243;-79
2023/01/27 10:44:38;;;;;;;2.20;1.97;;;;;;;3.88;100.00;101468.81;5047250;28;20202;-80
2023/01/27 10:47:13;;;;;;;1.90;1.80;;;;;;;3.87;100.00;101464.50;5047076;28;20552;-81
2023/01/27 10:49:48;;;;;;;2.17;1.70;;;;;;;3.86;100.00;101475.66;5044799;28;20574;-80
2023/01/27 10:52:17;;;;;;;2.70;2.33;;;;;;;3.95;100.00;101481.94;5043116;28;20300;-80
2023/01/27 10:54:52;;;;;;;1.73;1.53;;;;;;;4.00;100.00;101491.50;5051500;28;20263;-78
2023/01/27 10:57:25;;;;;;;2.90;2.43;;;;;;;3.98;100.00;101489.78;5051539;28;20277;-81
2023/01/27 11:00:01;;;;;;;2.67;2.17;;;;;;;3.94;100.00;101495.69;5050902;28;20247;-79
2023/01/27 11:02:34;;;;;;;2.40;1.97;;;;;;;3.92;100.00;101493.91;5049489;28;20224;-80
2023/01/27 11:05:07;;;;;;;2.23;1.50;;;;;;;3.95;100.00;101499.16;5047323;28;20235;-80
2023/01/27 11:07:43;;;;;;;1.70;1.60;;;;;;;3.94;100.00;101503.44;5050348;28;20198;-81
2023/01/27 11:10:16;;;;;;;2.90;2.30;;;;;;;3.98;100.00;101506.97;5048875;28;20202;-80
2023/01/27 11:12:47;;;;;;;2.33;2.13;;;;;;;4.03;100.00;101507.09;5048256;28;20210;-82
2023/01/27 11:15:19;;;;;;;2.80;1.80;;;;;;;4.07;100.00;101506.34;5046973;28;20198;-82
2023/01/27 11:17:52;;;;;;;2.23;1.60;;;;;;;4.10;100.00;101496.97;5047731;28;20194;-80
2023/01/27 11:20:28;;;;;;;2.40;2.20;;;;;;;4.13;100.00;101502.19;5044681;28;20630;-81
2023/01/27 11:23:01;;;;;;;3.17;2.90;;;;;;;4.17;100.00;101511.75;5046834;28;20218;-80
2023/01/27 11:25:34;;;;;;;1.90;1.80;;;;;;;4.10;99.93;101524.47;5050246;28;20290;-82
2023/01/27 11:28:10;;;;;;;2.47;2.27;;;;;;;4.13;99.32;101537.50;5045291;28;20198;-80
2023/01/27 11:30:42;;;;;;;3.83;2.80;;;;;;;4.10;98.37;101552.91;5043183;28;20201;-81
2023/01/27 11:33:19;;;;;;;4.53;2.70;;;;;;;4.08;98.58;101568.34;5048612;28;20249;-79
2023/01/27 11:35:45;;;;;;;2.73;2.00;;;;;;;4.10;98.41;101581.31;5047224;28;20203;-82
2023/01/27 11:38:16;;;;;;;1.87;1.77;;;;;;;4.06;98.04;101601.03;5047875;28;20198;-82
2023/01/27 11:40:45;;;;;;;2.60;2.40;;;;;;;4.03;97.71;101600.09;5043748;28;20222;-81
2023/01/27 11:43:15;;;;;;;2.17;1.40;;;;;;;4.01;97.44;101607.81;5048252;28;20241;-80
2023/01/27 11:45:44;;;;;;;4.87;3.33;;;;;;;3.94;97.51;101613.63;5048801;28;20199;-81
2023/01/27 11:48:16;;;;;;;1.43;1.33;;;;;;;3.95;97.59;101607.66;5050138;28;20208;-82
2023/01/27 11:50:44;;;;;;;1.20;1.10;;;;;;;3.90;97.66;101598.88;5048100;28;20214;-82
2023/01/27 11:53:17;;;;;;;1.53;1.17;;;;;;;3.91;98.40;101601.50;5046902;28;20226;-82
2023/01/27 11:55:47;;;;;;;1.50;1.40;;;;;;;3.92;98.28;101584.28;5050650;28;20256;-81
2023/01/27 11:58:20;;;;;;;2.27;1.10;;;;;;;3.94;98.21;101586.13;5049589;28;20630;-81